createdAt,value
2022-11-04T00:03:43.046Z,95957.72
2022-11-04T00:08:49.650Z,95950.16
2022-11-04T00:13:52.293Z,95952.84
2022-11-04T00:18:56.522Z,95915.78
2022-11-04T00:24:16.886Z,95911.47
2022-11-04T00:29:19.458Z,95906.94
2022-11-04T00:34:23.353Z,95903.88
2022-11-04T00:39:25.948Z,95890.06
2022-11-04T00:44:28.522Z,95894.44
2022-11-04T00:49:32.450Z,95900.34
2022-11-04T00:54:35.048Z,95875.94
2022-11-04T00:59:37.783Z,95902.56
2022-11-04T01:04:41.727Z,95934.34
2022-11-04T01:09:44.327Z,95961.03
2022-11-04T01:14:49.708Z,95991.03
2022-11-04T01:19:53.735Z,96004.41
2022-11-04T01:24:56.352Z,96014.19
2022-11-04T01:29:58.958Z,96058.38
2022-11-04T01:35:02.931Z,96086.38
2022-11-04T01:40:06.454Z,96124.13
2022-11-04T01:45:14.077Z,96140.84
2022-11-04T01:50:21.596Z,96130.34
2022-11-04T01:55:27.440Z,96133.13
2022-11-04T02:00:30.091Z,96135.91
2022-11-04T02:05:34.145Z,96157.25
2022-11-04T02:10:37.511Z,96155.66
2022-11-04T02:15:47.260Z,96164.69
2022-11-04T02:21:14.410Z,96149.03
2022-11-04T02:26:53.585Z,96148.31
2022-11-04T02:32:06.210Z,96147.44
2022-11-04T02:37:15.801Z,96144.94
2022-11-04T02:42:26.530Z,96131.59
2022-11-04T02:47:32.083Z,96148.34
2022-11-04T02:52:40.297Z,96137.16
2022-11-04T02:57:44.127Z,96117.63
2022-11-04T03:02:52.531Z,96122.16
2022-11-04T03:07:58.035Z,96108.03
2022-11-04T03:13:04.207Z,96131.03
2022-11-04T03:18:16.389Z,96112.63
2022-11-04T03:23:19.287Z,96124.13
2022-11-04T03:28:26.734Z,96130.41
2022-11-04T03:33:36.018Z,96123.44
2022-11-04T03:38:39.509Z,96134.72
2022-11-04T03:43:42.964Z,96142.81
2022-11-04T03:48:48.128Z,96160.38
2022-11-04T03:53:50.876Z,96171.06
2022-11-04T03:59:04.389Z,96171.03
2022-11-04T04:04:13.434Z,96182.47
2022-11-04T04:09:20.169Z,96180.69
2022-11-04T04:19:56.405Z,95672.34
2022-11-04T04:25:17.109Z,95762.53
2022-11-04T04:30:19.951Z,95797.44
2022-11-04T04:35:45.681Z,95823.84
2022-11-04T04:41:15.125Z,95834.41
2022-11-04T04:46:17.714Z,95849.47
2022-11-04T04:51:22.121Z,95860.03
2022-11-04T04:56:24.701Z,95861.81
2022-11-04T05:01:27.405Z,95871.53
2022-11-04T05:06:31.461Z,95877.81
2022-11-04T05:11:34.162Z,95878.75
2022-11-04T05:16:40.822Z,95885.91
2022-11-04T05:21:45.029Z,95902.69
2022-11-04T05:26:47.714Z,95915.97
2022-11-04T05:31:50.333Z,95920.47
2022-11-04T05:36:54.290Z,95938.19
2022-11-04T05:41:56.892Z,95930.31
2022-11-04T05:46:59.518Z,95930.41
2022-11-04T05:52:03.505Z,95939.47
2022-11-04T05:57:06.336Z,95957.88
2022-11-04T06:02:09.813Z,95959.63
2022-11-04T06:07:14.057Z,95949.88
2022-11-04T06:12:17.104Z,95936.59
2022-11-04T06:17:21.199Z,95941.84
2022-11-04T06:22:25.457Z,95961.78
2022-11-04T06:27:31.167Z,95976.44
2022-11-04T06:32:34.338Z,95958.81
2022-11-04T06:37:38.797Z,95988.63
2022-11-04T06:42:42.815Z,95978.00
2022-11-04T06:47:45.414Z,96004.22
2022-11-04T06:52:49.392Z,96009.38
2022-11-04T06:57:52.034Z,96018.94
2022-11-04T07:02:54.717Z,96012.78
2022-11-04T07:07:58.735Z,96020.75
2022-11-04T07:13:01.507Z,96005.84
2022-11-04T07:18:04.233Z,96036.47
2022-11-04T07:23:08.370Z,96053.16
2022-11-04T07:28:11.262Z,96064.47
2022-11-04T07:33:14.195Z,96062.53
2022-11-04T07:38:18.202Z,96091.53
2022-11-04T07:43:21.155Z,96082.72
2022-11-04T07:48:23.845Z,96062.38
2022-11-04T07:53:27.946Z,95961.34
2022-11-04T07:58:30.590Z,96013.44
2022-11-04T08:03:33.839Z,96019.19
2022-11-04T08:08:38.497Z,96125.69
2022-11-04T08:13:41.471Z,96178.84
2022-11-04T08:18:44.523Z,96200.66
2022-11-04T08:23:51.286Z,96209.38
2022-11-04T08:28:53.894Z,96251.25
2022-11-04T08:33:57.116Z,96285.00
2022-11-04T08:39:05.893Z,96295.78
2022-11-04T08:44:12.168Z,96352.84
2022-11-04T08:49:20.779Z,96379.97
2022-11-04T08:54:25.957Z,96436.88
2022-11-04T08:59:28.687Z,96526.56
2022-11-04T09:04:31.373Z,96590.94
2022-11-04T09:09:35.377Z,96624.44
2022-11-04T09:14:38.005Z,96655.34
2022-11-04T09:19:40.734Z,96676.41
2022-11-04T09:24:44.693Z,96672.63
2022-11-04T09:29:47.297Z,96693.66
2022-11-04T09:34:50.300Z,96726.84
2022-11-04T09:39:54.246Z,96748.81
2022-11-04T09:45:20.725Z,96749.59
2022-11-04T09:50:25.508Z,96787.81
2022-11-04T09:55:33.884Z,96847.25
2022-11-04T10:00:39.087Z,96887.31
2022-11-04T10:05:51.439Z,96933.56
2022-11-04T10:10:59.713Z,96968.56
2022-11-04T10:16:25.723Z,97052.09
2022-11-04T10:21:38.319Z,97082.28
2022-11-04T10:26:45.877Z,97179.13
2022-11-04T10:31:48.929Z,97254.75
2022-11-04T10:36:51.887Z,97334.97
2022-11-04T10:41:55.946Z,97390.44
2022-11-04T10:47:08.152Z,97448.63
2022-11-04T10:52:11.367Z,97493.50
2022-11-04T10:57:20.165Z,97533.09
2022-11-04T11:02:44.574Z,97556.00
2022-11-04T11:07:49.572Z,97584.69
2022-11-04T11:12:55.491Z,97634.72
2022-11-04T11:18:01.497Z,97715.66
2022-11-04T11:23:09.455Z,97760.66
2022-11-04T11:28:22.095Z,97801.16
2022-11-04T11:33:27.609Z,97811.69
2022-11-04T11:38:31.551Z,97822.22
2022-11-04T11:43:36.986Z,97825.69
2022-11-04T11:48:42.669Z,97851.22
2022-11-04T11:54:02.603Z,97873.06
2022-11-04T12:10:07.069Z,98006.78
2022-11-04T12:15:31.505Z,98018.22
2022-11-04T12:20:44.436Z,98019.13
2022-11-04T12:26:00.590Z,98027.00
2022-11-04T12:31:15.896Z,98051.56
2022-11-04T12:36:29.293Z,98117.56
2022-11-04T12:42:14.442Z,98189.78
2022-11-04T12:47:14.633Z,98224.09
2022-11-04T12:52:29.236Z,98282.06
2022-11-04T12:57:35.995Z,98312.00
2022-11-04T13:02:45.022Z,98328.78
2022-11-04T13:07:52.979Z,98344.63
2022-11-04T13:12:57.081Z,98345.53
2022-11-04T13:18:04.552Z,98355.22
2022-11-04T13:23:11.736Z,98377.22
2022-11-04T13:28:16.746Z,98382.47
2022-11-04T13:33:27.443Z,98408.78
2022-11-04T13:38:33.683Z,98393.81
2022-11-04T13:43:39.526Z,98381.50
2022-11-04T13:48:53.663Z,98377.06
2022-11-04T13:53:57.878Z,98394.56
2022-11-04T13:59:06.913Z,98402.47
2022-11-04T14:04:28.448Z,98402.41
2022-11-04T14:09:50.887Z,98406.81
2022-11-04T14:14:55.140Z,98408.69
2022-11-04T14:20:03.554Z,98386.72
2022-11-04T14:25:25.578Z,98382.34
2022-11-04T14:30:38.725Z,98368.25
2022-11-04T14:35:42.800Z,98352.41
2022-11-04T14:40:48.046Z,98336.63
2022-11-04T14:45:50.709Z,98348.03
2022-11-04T14:50:57.039Z,98348.03
2022-11-04T14:56:07.754Z,98335.72
2022-11-04T15:01:15.255Z,98339.13
2022-11-04T15:06:40.249Z,98363.78
2022-11-04T15:12:07.121Z,98396.28
2022-11-04T15:17:18.469Z,98437.41
2022-11-04T15:22:22.498Z,98419.03
2022-11-04T15:27:29.188Z,98436.50
2022-11-04T15:32:32.091Z,98433.03
2022-11-04T15:37:36.583Z,98439.13
2022-11-04T15:42:42.851Z,98452.38
2022-11-04T15:47:45.450Z,98472.47
2022-11-04T15:52:52.355Z,98465.41
2022-11-04T15:57:56.092Z,98459.19
2022-11-04T16:02:59.960Z,98447.81
2022-11-04T16:08:20.333Z,98427.63
2022-11-04T16:13:25.686Z,98422.28
2022-11-04T16:18:35.580Z,98389.78
2022-11-04T16:23:45.598Z,98381.00
2022-11-04T16:28:48.212Z,98359.88
2022-11-04T16:33:51.081Z,98327.38
2022-11-04T16:38:56.402Z,98310.69
2022-11-04T16:43:59.181Z,98292.25
2022-11-04T16:49:01.997Z,98286.03
2022-11-04T16:54:10.326Z,98261.28
2022-11-04T16:59:13.306Z,98229.66
2022-11-04T17:04:15.889Z,98168.28
2022-11-04T17:09:21.762Z,98060.25
2022-11-04T17:14:24.347Z,98020.69
2022-11-04T17:19:31.879Z,97993.34
2022-11-04T17:24:38.601Z,98045.50
2022-11-04T17:29:41.213Z,98050.41
2022-11-04T17:34:43.814Z,97991.84
2022-11-04T17:39:47.777Z,97944.41
2022-11-04T17:44:50.443Z,97897.16
2022-11-04T17:49:53.048Z,97869.16
2022-11-04T17:54:57.007Z,97813.22
2022-11-04T17:59:59.596Z,97778.94
2022-11-04T18:05:03.522Z,97743.09
2022-11-04T18:10:08.462Z,97687.97
2022-11-04T18:15:12.565Z,97647.69
2022-11-04T18:20:16.935Z,97582.00
2022-11-04T18:25:20.942Z,97493.53
2022-11-04T18:30:23.534Z,97449.72
2022-11-04T18:35:26.173Z,97398.91
2022-11-04T18:40:30.826Z,97384.91
2022-11-04T18:45:33.441Z,97355.09
2022-11-04T18:50:36.873Z,97322.69
2022-11-04T18:55:40.899Z,97272.75
2022-11-04T19:00:43.521Z,97267.59
2022-11-04T19:05:46.163Z,97256.22
2022-11-04T19:11:00.727Z,97242.19
2022-11-04T19:16:05.803Z,97244.84
2022-11-04T19:21:10.908Z,97224.78
2022-11-04T19:26:16.845Z,97195.91
2022-11-04T19:31:21.511Z,97167.03
2022-11-04T19:36:25.571Z,97133.81
2022-11-04T19:41:47.389Z,97116.38
2022-11-04T19:46:50.755Z,97104.13
2022-11-04T19:51:53.378Z,97081.41
2022-11-04T19:56:57.915Z,97034.13
2022-11-04T20:02:00.680Z,97033.28
2022-11-04T20:07:03.609Z,97018.41
2022-11-04T20:12:25.376Z,96993.09
2022-11-04T20:17:27.974Z,96997.44
2022-11-04T20:22:30.545Z,96987.84
2022-11-04T20:27:34.493Z,96963.31
2022-11-04T20:32:37.097Z,96967.72
2022-11-04T20:37:39.751Z,96951.09
2022-11-04T20:42:47.648Z,96930.97
2022-11-04T20:47:50.316Z,96927.50
2022-11-04T20:52:53.628Z,96910.91
2022-11-04T20:57:57.594Z,96900.41
2022-11-04T21:03:00.209Z,96871.53
2022-11-04T21:08:02.831Z,96840.84
2022-11-04T21:13:06.797Z,96794.47
2022-11-04T21:18:10.162Z,96761.28
2022-11-04T21:23:14.290Z,96743.84
2022-11-04T21:28:18.463Z,96790.19
2022-11-04T21:33:21.276Z,96811.13
2022-11-04T21:38:24.171Z,96762.97
2022-11-04T21:43:28.145Z,96720.06
2022-11-04T21:48:31.649Z,96672.00
2022-11-04T21:53:34.690Z,96666.88
2022-11-04T21:58:39.111Z,96650.28
2022-11-04T22:03:41.788Z,96618.78
2022-11-04T22:08:45.979Z,96575.06
2022-11-04T22:13:50.440Z,96550.50
2022-11-04T22:18:54.203Z,96546.25
2022-11-04T22:23:57.293Z,96535.91
2022-11-04T22:29:01.407Z,96501.81
2022-11-04T22:34:04.734Z,96453.78
2022-11-04T22:39:11.969Z,96406.53
2022-11-04T22:44:17.553Z,96373.38
2022-11-04T22:49:20.137Z,96320.94
2022-11-04T22:54:22.716Z,96289.47
2022-11-04T22:59:26.721Z,96240.31
2022-11-04T23:04:29.328Z,96199.28
2022-11-04T23:09:32.973Z,96179.19
2022-11-04T23:14:54.456Z,96143.34
2022-11-04T23:19:57.054Z,96085.63
2022-11-04T23:25:10.216Z,96054.19
2022-11-04T23:30:25.369Z,96055.00
2022-11-04T23:35:46.652Z,96043.63
2022-11-04T23:41:04.083Z,95864.38
2022-11-04T23:46:25.999Z,95852.19
2022-11-04T23:51:46.286Z,95881.19
2022-11-04T23:57:20.834Z,95848.69
